createdAt,value
2019-04-05T00:02:14.453Z,78.59
2019-04-05T00:04:43.044Z,78.58
2019-04-05T00:07:11.696Z,78.31
2019-04-05T00:09:42.958Z,78.60
2019-04-05T00:12:13.003Z,78.60
2019-04-05T00:14:41.746Z,78.79
2019-04-05T00:17:10.247Z,78.75
2019-04-05T00:19:40.366Z,78.47
2019-04-05T00:22:09.397Z,78.43
2019-04-05T00:24:39.934Z,78.32
2019-04-05T00:27:09.576Z,78.37
2019-04-05T00:29:39.522Z,78.34
2019-04-05T00:32:08.276Z,78.45
2019-04-05T00:34:36.766Z,78.58
2019-04-05T00:37:07.102Z,79.59
2019-04-05T00:39:36.314Z,79.40
2019-04-05T00:42:06.140Z,80.12
2019-04-05T00:44:34.790Z,80.02
2019-04-05T00:47:03.466Z,79.87
2019-04-05T00:49:35.252Z,80.02
2019-04-05T00:52:03.911Z,79.66
2019-04-05T00:54:34.305Z,79.85
2019-04-05T00:57:05.057Z,79.58
2019-04-05T00:59:33.686Z,79.52
2019-04-05T01:02:02.318Z,79.38
2019-04-05T01:04:30.898Z,79.22
2019-04-05T01:06:59.399Z,79.18
2019-04-05T01:09:27.976Z,79.00
2019-04-05T01:11:56.534Z,79.10
2019-04-05T01:14:26.082Z,78.83
2019-04-05T01:16:54.855Z,79.03
2019-04-05T01:19:31.315Z,79.01
2019-04-05T01:22:02.864Z,78.98
2019-04-05T01:24:31.596Z,79.12
2019-04-05T01:27:00.736Z,79.09
2019-04-05T01:29:29.307Z,79.10
2019-04-05T01:31:58.216Z,79.07
2019-04-05T01:34:27.608Z,79.11
2019-04-05T01:36:56.332Z,79.12
2019-04-05T01:39:24.908Z,79.33
2019-04-05T01:41:53.493Z,79.26
2019-04-05T01:44:22.205Z,79.17
2019-04-05T01:46:52.253Z,79.06
2019-04-05T01:49:20.921Z,79.43
2019-04-05T01:51:49.857Z,79.21
2019-04-05T01:54:20.713Z,79.07
2019-04-05T01:56:51.136Z,78.86
2019-04-05T01:59:22.789Z,78.69
2019-04-05T02:01:51.295Z,78.80
2019-04-05T02:04:21.432Z,78.88
2019-04-05T02:06:50.091Z,78.74
2019-04-05T02:09:18.725Z,78.86
2019-04-05T02:11:47.352Z,78.82
2019-04-05T02:14:16.027Z,78.83
2019-04-05T02:16:47.279Z,78.86
2019-04-05T02:19:17.567Z,79.05
2019-04-05T02:21:46.128Z,79.29
2019-04-05T02:24:14.761Z,78.89
2019-04-05T02:26:43.693Z,78.80
2019-04-05T02:29:12.343Z,79.06
2019-04-05T02:31:40.914Z,79.05
2019-04-05T02:34:09.565Z,78.90
2019-04-05T02:36:38.216Z,78.87
2019-04-05T02:39:08.083Z,78.88
2019-04-05T02:41:37.910Z,78.67
2019-04-05T02:44:09.611Z,78.62
2019-04-05T02:46:41.407Z,78.66
2019-04-05T02:49:10.664Z,78.52
2019-04-05T02:51:41.074Z,78.51
2019-04-05T02:54:13.586Z,78.23
2019-04-05T02:56:43.504Z,78.23
2019-04-05T02:59:13.515Z,78.31
2019-04-05T03:01:44.418Z,78.23
2019-04-05T03:04:13.424Z,78.22
2019-04-05T03:06:42.896Z,78.25
2019-04-05T03:09:12.101Z,78.14
2019-04-05T03:11:43.451Z,78.10
2019-04-05T03:14:13.054Z,78.12
2019-04-05T03:16:44.643Z,77.97
2019-04-05T03:19:16.158Z,77.81
2019-04-05T03:21:47.701Z,77.73
2019-04-05T03:24:20.856Z,77.48
2019-04-05T03:26:52.370Z,77.50
2019-04-05T03:29:21.161Z,77.36
2019-04-05T03:31:49.778Z,77.29
2019-04-05T03:34:21.647Z,77.27
2019-04-05T03:36:51.899Z,77.36
2019-04-05T03:39:20.605Z,77.41
2019-04-05T03:41:50.973Z,77.48
2019-04-05T03:44:23.194Z,77.37
2019-04-05T03:46:57.070Z,77.37
2019-04-05T03:49:24.077Z,77.39
2019-04-05T03:51:52.704Z,77.34
2019-04-05T03:54:21.731Z,77.39
2019-04-05T03:56:50.551Z,77.38
2019-04-05T03:59:21.064Z,77.32
2019-04-05T04:01:49.595Z,77.25
2019-04-05T04:04:18.393Z,77.34
2019-04-05T04:06:47.102Z,77.46
2019-04-05T04:09:15.719Z,77.43
2019-04-05T04:11:44.322Z,77.43
2019-04-05T04:14:15.388Z,77.67
2019-04-05T04:16:44.005Z,77.53
2019-04-05T04:19:13.590Z,77.57
2019-04-05T04:21:47.825Z,77.61
2019-04-05T04:24:16.665Z,77.50
2019-04-05T04:26:46.697Z,77.52
2019-04-05T04:29:16.849Z,77.33
2019-04-05T04:31:45.667Z,77.35
2019-04-05T04:34:14.495Z,77.40
2019-04-05T04:36:43.033Z,77.48
2019-04-05T04:39:12.097Z,77.67
2019-04-05T04:41:42.177Z,77.55
2019-04-05T04:44:12.219Z,77.54
2019-04-05T04:46:41.017Z,77.57
2019-04-05T04:49:10.038Z,77.59
2019-04-05T04:51:39.416Z,77.89
2019-04-05T04:54:08.154Z,77.86
2019-04-05T04:56:38.456Z,77.82
2019-04-05T04:59:08.020Z,77.66
2019-04-05T05:01:37.016Z,77.69
2019-04-05T05:04:08.215Z,77.71
2019-04-05T05:06:36.098Z,77.60
2019-04-05T05:09:07.094Z,77.58
2019-04-05T05:11:36.395Z,77.49
2019-04-05T05:14:11.300Z,77.44
2019-04-05T05:16:39.838Z,77.40
2019-04-05T05:19:08.610Z,77.34
2019-04-05T05:21:37.321Z,77.37
2019-04-05T05:24:06.470Z,77.31
2019-04-05T05:26:35.153Z,77.46
2019-04-05T05:29:04.077Z,77.39
2019-04-05T05:31:32.626Z,77.34
2019-04-05T05:34:01.333Z,77.38
2019-04-05T05:36:29.929Z,77.43
2019-04-05T05:38:58.562Z,77.32
2019-04-05T05:41:27.123Z,77.52
2019-04-05T05:43:58.595Z,77.54
2019-04-05T05:46:27.697Z,77.53
2019-04-05T05:48:57.890Z,77.52
2019-04-05T05:51:26.452Z,77.53
2019-04-05T05:53:55.074Z,77.52
2019-04-05T05:56:23.584Z,77.46
2019-04-05T05:58:57.572Z,77.72
2019-04-05T06:01:23.811Z,77.86
2019-04-05T06:03:52.318Z,77.94
2019-04-05T06:06:23.816Z,77.98
2019-04-05T06:08:54.105Z,77.82
2019-04-05T06:11:22.666Z,77.96
2019-04-05T06:13:51.155Z,77.92
2019-04-05T06:16:19.692Z,78.03
2019-04-05T06:18:49.951Z,78.00
2019-04-05T06:21:18.877Z,78.05
2019-04-05T06:23:47.367Z,77.84
2019-04-05T06:26:15.910Z,77.78
2019-04-05T06:28:44.524Z,77.84
2019-04-05T06:31:14.558Z,77.86
2019-04-05T06:33:43.090Z,77.70
2019-04-05T06:36:14.452Z,77.68
2019-04-05T06:38:44.452Z,77.74
2019-04-05T06:41:12.940Z,77.71
2019-04-05T06:43:41.439Z,77.72
2019-04-05T06:46:09.991Z,77.77
2019-04-05T06:48:38.449Z,77.61
2019-04-05T06:51:07.007Z,77.43
2019-04-05T06:53:35.490Z,77.31
2019-04-05T06:56:04.080Z,77.09
2019-04-05T06:58:32.563Z,77.12
2019-04-05T07:01:01.179Z,77.13
2019-04-05T07:03:29.720Z,77.17
2019-04-05T07:05:58.247Z,77.09
2019-04-05T07:08:27.205Z,77.20
2019-04-05T07:10:55.695Z,76.95
2019-04-05T07:13:27.204Z,77.05
2019-04-05T07:15:54.533Z,76.90
2019-04-05T07:18:33.966Z,76.91
2019-04-05T07:20:58.024Z,76.68
2019-04-05T07:23:29.436Z,76.84
2019-04-05T07:25:57.911Z,76.97
2019-04-05T07:28:26.506Z,76.89
2019-04-05T07:30:54.990Z,76.89
2019-04-05T07:33:24.784Z,76.81
2019-04-05T07:35:53.475Z,76.72
2019-04-05T07:38:22.345Z,76.54
2019-04-05T07:40:51.053Z,76.49
2019-04-05T07:43:21.198Z,76.49
2019-04-05T07:45:49.984Z,76.34
2019-04-05T07:48:18.717Z,76.19
2019-04-05T07:50:47.433Z,76.22
2019-04-05T07:53:16.199Z,76.44
2019-04-05T07:55:44.889Z,76.40
2019-04-05T07:58:13.546Z,76.33
2019-04-05T08:00:45.394Z,76.08
2019-04-05T08:03:14.063Z,75.97
2019-04-05T08:05:43.413Z,75.72
2019-04-05T08:08:15.025Z,75.52
2019-04-05T08:10:44.636Z,75.68
2019-04-05T08:13:17.793Z,75.63
2019-04-05T08:15:47.096Z,75.73
2019-04-05T08:18:15.842Z,75.65
2019-04-05T08:20:47.259Z,75.64
2019-04-05T08:23:15.935Z,75.50
2019-04-05T08:25:47.755Z,75.65
2019-04-05T08:28:16.495Z,75.59
2019-04-05T08:30:45.270Z,75.57
2019-04-05T08:33:14.011Z,75.13
2019-04-05T08:35:42.709Z,74.96
2019-04-05T08:38:11.621Z,74.99
2019-04-05T08:40:43.417Z,74.88
2019-04-05T08:43:12.084Z,74.59
2019-04-05T08:45:43.086Z,74.53
2019-04-05T08:48:11.754Z,74.58
2019-04-05T08:50:40.453Z,74.66
2019-04-05T08:53:15.442Z,74.69
2019-04-05T08:55:44.164Z,74.56
2019-04-05T08:58:13.016Z,74.57
2019-04-05T09:00:50.612Z,74.16
2019-04-05T09:03:19.852Z,74.25
2019-04-05T09:05:48.563Z,74.16
2019-04-05T09:08:24.861Z,73.94
2019-04-05T09:10:54.692Z,73.67
2019-04-05T09:13:23.533Z,73.43
2019-04-05T09:15:54.986Z,72.97
2019-04-05T09:18:23.660Z,72.81
2019-04-05T09:20:52.367Z,72.52
2019-04-05T09:23:21.319Z,72.42
2019-04-05T09:25:53.585Z,71.83
2019-04-05T09:28:24.844Z,72.02
2019-04-05T09:30:53.970Z,72.06
2019-04-05T09:33:22.697Z,72.36
2019-04-05T09:35:51.442Z,72.47
2019-04-05T09:38:20.296Z,72.39
2019-04-05T09:40:50.432Z,71.89
2019-04-05T09:43:19.202Z,71.96
2019-04-05T09:45:48.056Z,72.13
2019-04-05T09:48:16.765Z,72.03
2019-04-05T09:50:45.514Z,71.79
2019-04-05T09:53:14.273Z,71.57
2019-04-05T09:55:45.716Z,71.61
2019-04-05T09:58:14.480Z,71.09
2019-04-05T10:00:45.355Z,70.88
2019-04-05T10:03:14.129Z,71.13
2019-04-05T10:05:44.423Z,71.01
2019-04-05T10:08:13.221Z,70.76
2019-04-05T10:10:41.903Z,70.82
2019-04-05T10:13:10.693Z,70.79
2019-04-05T10:15:39.393Z,70.39
2019-04-05T10:18:08.323Z,70.40
2019-04-05T10:20:38.963Z,70.39
2019-04-05T10:23:10.524Z,69.83
2019-04-05T10:25:39.263Z,68.98
2019-04-05T10:28:08.049Z,69.45
2019-04-05T10:30:38.122Z,69.16
2019-04-05T10:33:06.876Z,68.95
2019-04-05T10:35:35.663Z,68.96
2019-04-05T10:38:04.561Z,69.11
2019-04-05T10:40:33.276Z,68.75
2019-04-05T10:43:03.489Z,68.94
2019-04-05T10:45:32.228Z,68.75
2019-04-05T10:48:01.008Z,68.73
2019-04-05T10:50:29.686Z,68.55
2019-04-05T10:52:58.453Z,68.40
2019-04-05T10:55:27.132Z,68.44
2019-04-05T10:57:55.977Z,68.71
2019-04-05T11:00:25.038Z,68.55
2019-04-05T11:02:53.752Z,68.39
2019-04-05T11:05:22.512Z,68.35
2019-04-05T11:07:51.201Z,68.44
2019-04-05T11:10:20.600Z,68.33
2019-04-05T11:12:50.097Z,68.50
2019-04-05T11:15:21.937Z,68.41
2019-04-05T11:17:50.629Z,67.93
2019-04-05T11:20:21.560Z,68.07
2019-04-05T11:22:51.285Z,68.19
2019-04-05T11:25:21.453Z,68.20
2019-04-05T11:27:50.106Z,67.63
2019-04-05T11:30:21.762Z,66.97
2019-04-05T11:32:50.509Z,66.48
2019-04-05T11:35:19.272Z,66.61
2019-04-05T11:37:50.761Z,65.98
2019-04-05T11:40:18.394Z,65.88
2019-04-05T11:42:48.647Z,65.98
2019-04-05T11:45:18.818Z,66.15
2019-04-05T11:47:47.906Z,65.90
2019-04-05T11:50:19.454Z,65.62
2019-04-05T11:52:47.820Z,65.54
2019-04-05T11:55:18.512Z,65.33
2019-04-05T11:57:49.241Z,65.41
2019-04-05T12:00:22.905Z,65.61
2019-04-05T12:03:00.948Z,63.59
2019-04-05T12:05:29.812Z,64.34
2019-04-05T12:08:01.838Z,64.67
2019-04-05T12:10:32.021Z,64.75
2019-04-05T12:12:59.911Z,64.61
2019-04-05T12:15:28.621Z,64.50
2019-04-05T12:17:59.842Z,64.77
2019-04-05T12:20:28.538Z,63.61
2019-04-05T12:22:57.221Z,64.06
2019-04-05T12:25:25.910Z,63.50
2019-04-05T12:28:05.707Z,63.92
2019-04-05T12:30:26.246Z,64.27
2019-04-05T12:32:55.003Z,64.17
2019-04-05T12:35:26.686Z,63.97
2019-04-05T12:37:56.154Z,64.04
2019-04-05T12:40:24.928Z,64.43
2019-04-05T12:42:54.177Z,64.69
2019-04-05T12:45:24.659Z,64.91
2019-04-05T12:47:53.446Z,64.59
2019-04-05T12:50:22.230Z,64.62
2019-04-05T12:52:50.989Z,64.39
2019-04-05T12:55:23.817Z,64.38
2019-04-05T12:57:50.345Z,64.50
2019-04-05T13:00:19.855Z,64.46
2019-04-05T13:02:50.289Z,64.89
2019-04-05T13:05:21.346Z,65.38
2019-04-05T13:07:50.697Z,65.00
2019-04-05T13:10:20.010Z,65.31
2019-04-05T13:12:51.622Z,65.23
2019-04-05T13:15:19.752Z,65.01
2019-04-05T13:17:48.528Z,65.10
2019-04-05T13:20:19.886Z,65.22
2019-04-05T13:22:48.675Z,65.05
2019-04-05T13:25:19.041Z,65.26
2019-04-05T13:27:54.121Z,66.33
2019-04-05T13:30:22.822Z,65.97
2019-04-05T13:32:53.408Z,64.12
2019-04-05T13:35:22.131Z,64.74
2019-04-05T13:37:50.950Z,63.52
2019-04-05T13:40:19.908Z,63.53
2019-04-05T13:42:48.881Z,64.10
2019-04-05T13:45:17.613Z,64.21
2019-04-05T13:47:46.423Z,65.04
2019-04-05T13:50:15.253Z,65.43
2019-04-05T13:52:43.945Z,65.34
2019-04-05T13:55:14.900Z,65.90
2019-04-05T13:57:43.675Z,65.83
2019-04-05T14:00:17.514Z,65.49
2019-04-05T14:02:44.677Z,66.06
2019-04-05T14:05:13.523Z,66.40
2019-04-05T14:07:42.193Z,66.14
2019-04-05T14:10:12.590Z,66.16
2019-04-05T14:12:41.431Z,66.35
2019-04-05T14:15:51.567Z,66.37
2019-04-05T14:18:20.850Z,66.18
2019-04-05T14:20:50.607Z,66.69
2019-04-05T14:23:23.045Z,66.86
2019-04-05T14:25:49.943Z,67.06
2019-04-05T14:28:18.678Z,66.57
2019-04-05T14:30:47.502Z,66.75
2019-04-05T14:33:16.269Z,66.30
2019-04-05T14:35:45.309Z,66.31
2019-04-05T14:38:16.334Z,66.13
2019-04-05T14:40:47.626Z,66.31
2019-04-05T14:43:16.401Z,66.02
2019-04-05T14:45:45.247Z,66.25
2019-04-05T14:48:14.035Z,65.92
2019-04-05T14:50:42.811Z,66.02
2019-04-05T14:53:11.490Z,66.26
2019-04-05T14:55:40.228Z,66.31
2019-04-05T14:58:10.856Z,66.06
2019-04-05T15:00:39.711Z,66.04
2019-04-05T15:03:08.413Z,65.95
2019-04-05T15:05:37.074Z,66.21
2019-04-05T15:08:05.778Z,66.23
2019-04-05T15:10:37.445Z,66.32
2019-04-05T15:13:12.182Z,66.03
2019-04-05T15:15:42.855Z,66.64
2019-04-05T15:18:11.550Z,66.65
2019-04-05T15:20:40.325Z,66.87
2019-04-05T15:23:09.785Z,67.02
2019-04-05T15:25:38.582Z,66.61
2019-04-05T15:28:10.710Z,66.17
2019-04-05T15:30:39.416Z,66.71
2019-04-05T15:33:08.082Z,66.71
2019-04-05T15:35:36.856Z,66.75
2019-04-05T15:38:05.644Z,66.67
2019-04-05T15:40:34.407Z,66.88
2019-04-05T15:43:07.004Z,66.76
2019-04-05T15:45:37.166Z,66.79
2019-04-05T15:48:06.403Z,67.21
2019-04-05T15:50:35.120Z,67.44
2019-04-05T15:53:07.034Z,67.17
2019-04-05T15:55:35.631Z,67.28
2019-04-05T15:58:04.706Z,67.61
2019-04-05T16:00:44.183Z,67.14
2019-04-05T16:03:14.697Z,67.09
2019-04-05T16:05:44.558Z,67.55
2019-04-05T16:08:14.846Z,67.46
2019-04-05T16:10:45.668Z,67.47
2019-04-05T16:13:14.413Z,67.78
2019-04-05T16:15:44.033Z,67.59
2019-04-05T16:18:12.939Z,67.92
2019-04-05T16:20:44.194Z,68.53
2019-04-05T16:23:12.213Z,68.27
2019-04-05T16:25:40.967Z,68.49
2019-04-05T16:28:13.714Z,68.46
2019-04-05T16:30:45.466Z,68.34
2019-04-05T16:33:14.138Z,68.63
2019-04-05T16:35:42.834Z,68.90
2019-04-05T16:38:11.497Z,69.12
2019-04-05T16:40:40.239Z,69.30
2019-04-05T16:43:10.433Z,69.46
2019-04-05T16:45:39.085Z,69.36
2019-04-05T16:48:07.854Z,69.27
2019-04-05T16:50:36.746Z,69.20
2019-04-05T16:53:05.451Z,69.30
2019-04-05T16:55:34.117Z,69.59
2019-04-05T16:58:02.815Z,69.85
2019-04-05T17:00:33.143Z,69.77
2019-04-05T17:03:01.860Z,69.97
2019-04-05T17:05:30.542Z,70.07
2019-04-05T17:07:59.216Z,70.20
2019-04-05T17:10:29.550Z,70.25
2019-04-05T17:13:02.554Z,70.20
2019-04-05T17:15:31.243Z,70.31
2019-04-05T17:18:00.092Z,70.36
2019-04-05T17:20:28.809Z,70.55
2019-04-05T17:22:58.816Z,70.55
2019-04-05T17:25:34.364Z,70.36
2019-04-05T17:28:00.133Z,70.58
2019-04-05T17:30:32.112Z,70.64
2019-04-05T17:33:03.640Z,70.65
2019-04-05T17:35:32.305Z,70.66
2019-04-05T17:38:01.073Z,70.75
2019-04-05T17:40:30.043Z,70.65
2019-04-05T17:43:02.273Z,70.56
2019-04-05T17:45:31.589Z,70.95
2019-04-05T17:48:00.311Z,70.94
2019-04-05T17:50:31.379Z,71.04
2019-04-05T17:53:11.259Z,71.13
2019-04-05T17:55:30.540Z,71.23
2019-04-05T17:58:00.973Z,71.21
2019-04-05T18:00:31.604Z,71.30
2019-04-05T18:03:00.275Z,71.22
2019-04-05T18:05:28.980Z,71.37
2019-04-05T18:08:00.880Z,71.26
2019-04-05T18:10:29.616Z,71.47
2019-04-05T18:13:06.144Z,71.40
2019-04-05T18:15:34.861Z,71.39
2019-04-05T18:18:03.597Z,71.57
2019-04-05T18:20:32.309Z,71.64
2019-04-05T18:23:01.254Z,71.56
2019-04-05T18:25:30.060Z,71.66
2019-04-05T18:27:58.874Z,71.88
2019-04-05T18:30:27.696Z,71.88
2019-04-05T18:32:56.473Z,71.88
2019-04-05T18:35:26.873Z,71.90
2019-04-05T18:37:55.618Z,71.96
2019-04-05T18:40:24.408Z,72.23
2019-04-05T18:42:55.905Z,72.25
2019-04-05T18:45:25.885Z,72.36
2019-04-05T18:47:54.993Z,72.26
2019-04-05T18:50:23.672Z,72.40
2019-04-05T18:52:52.960Z,72.20
2019-04-05T18:55:21.619Z,72.12
2019-04-05T18:57:50.655Z,72.27
2019-04-05T19:00:19.418Z,72.33
2019-04-05T19:02:49.588Z,72.55
2019-04-05T19:05:18.323Z,72.33
2019-04-05T19:07:47.078Z,72.49
2019-04-05T19:10:15.844Z,72.66
2019-04-05T19:12:46.192Z,72.69
2019-04-05T19:15:15.366Z,72.35
2019-04-05T19:17:44.127Z,72.62
2019-04-05T19:20:13.037Z,72.65
2019-04-05T19:22:41.658Z,72.56
2019-04-05T19:25:10.545Z,72.68
2019-04-05T19:27:39.305Z,72.76
2019-04-05T19:50:20.414Z,73.26
2019-04-05T19:52:53.129Z,73.12
2019-04-05T19:55:26.611Z,73.08
2019-04-05T19:57:55.360Z,73.03
2019-04-05T20:00:24.166Z,73.35
2019-04-05T20:02:52.960Z,73.29
2019-04-05T20:05:21.763Z,73.28
2019-04-05T20:07:50.449Z,73.31
2019-04-05T20:10:20.648Z,73.03
2019-04-05T20:12:49.368Z,72.91
2019-04-05T20:15:19.546Z,72.98
2019-04-05T20:17:48.247Z,73.03
2019-04-05T20:20:17.809Z,73.01
2019-04-05T20:22:48.009Z,73.04
2019-04-05T20:25:18.266Z,73.00
2019-04-05T20:27:47.032Z,72.89
2019-04-05T20:30:28.950Z,72.73
2019-04-05T20:32:59.529Z,72.55
2019-04-05T20:35:28.222Z,72.64
2019-04-05T20:37:56.936Z,72.56
2019-04-05T20:40:25.708Z,72.66
2019-04-05T20:42:54.820Z,72.79
2019-04-05T20:45:23.954Z,72.62
2019-04-05T20:47:53.849Z,72.67
2019-04-05T20:50:22.560Z,72.66
2019-04-05T20:52:53.402Z,72.69
2019-04-05T20:55:22.078Z,72.67
2019-04-05T20:57:50.785Z,72.67
2019-04-05T21:00:19.622Z,72.54
2019-04-05T21:02:48.648Z,72.48
2019-04-05T21:05:25.646Z,72.58
2019-04-05T21:07:51.090Z,72.55
2019-04-05T21:10:20.371Z,72.49
2019-04-05T21:12:51.788Z,72.51
2019-04-05T21:15:23.468Z,72.47
2019-04-05T21:17:53.791Z,72.53
2019-04-05T21:20:22.537Z,72.51
2019-04-05T21:22:55.619Z,72.46
2019-04-05T21:25:24.433Z,72.35
2019-04-05T21:27:53.192Z,72.23
2019-04-05T21:30:21.908Z,72.26
2019-04-05T21:32:50.674Z,72.27
2019-04-05T21:35:19.399Z,72.40
2019-04-05T21:37:48.146Z,72.34
2019-04-05T21:40:17.474Z,72.25
2019-04-05T21:42:46.250Z,71.98
2019-04-05T21:45:14.986Z,72.04
2019-04-05T21:47:43.673Z,72.00
2019-04-05T21:50:12.511Z,71.86
2019-04-05T21:52:41.215Z,71.67
2019-04-05T21:55:10.172Z,71.58
2019-04-05T21:57:38.926Z,71.55
2019-04-05T22:00:10.650Z,71.53
2019-04-05T22:02:41.662Z,71.63
2019-04-05T22:05:11.023Z,71.78
2019-04-05T22:07:39.715Z,71.98
2019-04-05T22:10:09.954Z,72.09
2019-04-05T22:12:42.356Z,72.21
2019-04-05T22:15:11.130Z,72.11
2019-04-05T22:17:39.906Z,72.07
2019-04-05T22:20:09.137Z,72.22
2019-04-05T22:22:37.882Z,72.17
2019-04-05T22:25:07.809Z,72.16
2019-04-05T22:27:36.887Z,72.29
2019-04-05T22:30:09.238Z,72.12
2019-04-05T22:32:39.882Z,72.21
2019-04-05T22:35:11.651Z,72.03
2019-04-05T22:37:40.449Z,72.08
2019-04-05T22:40:11.622Z,72.12
2019-04-05T22:42:40.353Z,72.30
2019-04-05T22:45:09.264Z,72.37
2019-04-05T22:47:39.701Z,72.13
2019-04-05T22:50:10.145Z,71.91
2019-04-05T22:52:38.976Z,71.80
2019-04-05T22:55:11.410Z,71.69
2019-04-05T22:57:39.699Z,71.59
2019-04-05T23:00:09.051Z,71.56
2019-04-05T23:02:39.451Z,71.58
2019-04-05T23:05:11.413Z,71.31
2019-04-05T23:07:40.209Z,71.28
2019-04-05T23:10:09.825Z,71.30
2019-04-05T23:12:38.579Z,71.02
2019-04-05T23:15:12.067Z,70.73
2019-04-05T23:17:40.757Z,70.37
2019-04-05T23:20:10.482Z,70.55
2019-04-05T23:22:40.109Z,70.91
2019-04-05T23:25:08.927Z,70.78
2019-04-05T23:27:37.676Z,70.76
2019-04-05T23:30:07.575Z,70.80
2019-04-05T23:32:36.267Z,70.41
2019-04-05T23:35:06.920Z,70.16
2019-04-05T23:37:35.614Z,70.07
2019-04-05T23:40:06.283Z,70.07
2019-04-05T23:42:35.039Z,70.06
2019-04-05T23:45:04.738Z,70.04
2019-04-05T23:47:33.429Z,70.09
2019-04-05T23:50:03.337Z,70.28
2019-04-05T23:52:32.061Z,70.37
2019-04-05T23:55:00.857Z,70.49
2019-04-05T23:57:29.653Z,70.57
2019-04-05T23:59:58.425Z,70.86
